Terminal Aerodrome Forecast
Issued by NWS Grand Rapids, MI

Home | Current Version | Previous Version | Text Only | Print | Product List | Glossary On
Versions: 1 2 3 4 5 6 7 8 9 10 11 12 13 14 15 16 17 18 19 20 21 22 23 24
000
FTUS43 KGRR 010520
TAFGRR
TAF
KGRR 010520Z 0106/0206 VRB03KT 4SM BR SKC
     FM010800 18003KT 1SM BR SKC
     FM011400 21008KT 5SM BR SCT010
     FM011600 21010KT P6SM SCT035=

USA.gov is the U.S. government's official web portal to all federal, state and local government web resources and services.